createdAt,value
2019-06-01T00:00:27.207Z,40.51
2019-06-01T00:03:01.412Z,40.53
2019-06-01T00:05:29.823Z,40.53
2019-06-01T00:07:58.087Z,40.49
2019-06-01T00:10:26.022Z,40.58
2019-06-01T00:12:54.384Z,40.53
2019-06-01T00:15:22.476Z,40.56
2019-06-01T00:17:50.851Z,40.57
2019-06-01T00:20:19.266Z,40.51
2019-06-01T00:22:47.547Z,40.51
2019-06-01T00:25:15.667Z,40.49
2019-06-01T00:27:44.672Z,40.51
2019-06-01T00:30:26.651Z,40.49
2019-06-01T00:32:45.193Z,40.49
2019-06-01T00:35:13.281Z,40.49
2019-06-01T00:37:41.379Z,40.54
2019-06-01T00:40:09.593Z,40.57
2019-06-01T00:42:37.717Z,40.51
2019-06-01T00:45:06.058Z,40.57
2019-06-01T00:47:34.455Z,40.51
2019-06-01T00:50:02.470Z,40.48
2019-06-01T00:52:30.551Z,40.53
2019-06-01T00:54:58.513Z,40.47
2019-06-01T00:57:26.466Z,40.53
2019-06-01T00:59:55.110Z,40.56
2019-06-01T01:02:23.679Z,40.59
2019-06-01T01:05:00.251Z,40.50
2019-06-01T01:07:28.439Z,40.61
2019-06-01T01:09:56.472Z,40.63
2019-06-01T01:12:24.602Z,40.52
2019-06-01T01:14:53.332Z,40.52
2019-06-01T01:17:21.369Z,40.47
2019-06-01T01:19:49.713Z,40.53
2019-06-01T01:22:17.852Z,40.56
2019-06-01T01:24:46.319Z,40.54
2019-06-01T01:27:14.522Z,40.61
2019-06-01T01:29:42.544Z,40.58
2019-06-01T01:32:10.646Z,40.54
2019-06-01T01:34:38.450Z,40.54
2019-06-01T01:37:06.465Z,40.64
2019-06-01T01:39:34.388Z,40.61
2019-06-01T01:42:02.541Z,40.59
2019-06-01T01:44:30.703Z,40.65
2019-06-01T01:46:59.126Z,40.60
2019-06-01T01:49:27.161Z,40.60
2019-06-01T01:51:55.451Z,40.57
2019-06-01T01:54:23.487Z,40.58
2019-06-01T01:56:52.097Z,40.50
2019-06-01T01:59:20.360Z,40.53
2019-06-01T02:01:48.398Z,40.53
2019-06-01T02:04:16.477Z,40.52
2019-06-01T02:06:44.580Z,40.45
2019-06-01T02:09:12.602Z,40.50
2019-06-01T02:11:40.676Z,40.51
2019-06-01T02:14:08.728Z,40.51
2019-06-01T02:16:37.047Z,40.51
2019-06-01T02:19:05.023Z,40.57
2019-06-01T02:21:32.950Z,40.55
2019-06-01T02:24:01.214Z,40.55
2019-06-01T02:26:29.354Z,40.57
2019-06-01T02:28:57.392Z,40.56
2019-06-01T02:31:40.756Z,40.50
2019-06-01T02:33:56.304Z,40.49
2019-06-01T02:36:24.954Z,40.51
2019-06-01T02:41:27.284Z,40.51
2019-06-01T02:43:57.172Z,40.53
2019-06-01T02:46:24.885Z,40.59
2019-06-01T02:49:11.701Z,40.54
2019-06-01T02:51:40.288Z,40.57
2019-06-01T02:54:08.324Z,40.58
2019-06-01T02:56:38.778Z,40.58
2019-06-01T02:59:06.923Z,40.54
2019-06-01T03:01:35.412Z,40.52
2019-06-01T03:07:03.342Z,40.54
2019-06-01T03:09:29.901Z,40.57
2019-06-01T03:11:59.357Z,40.54
2019-06-01T03:14:48.757Z,40.51
2019-06-01T03:17:16.712Z,40.47
2019-06-01T03:19:44.774Z,40.50
2019-06-01T03:25:07.993Z,40.46
2019-06-01T03:27:37.145Z,40.52
2019-06-01T03:30:06.668Z,40.54
2019-06-01T03:32:37.278Z,40.57
2019-06-01T03:35:23.854Z,40.55
2019-06-01T03:37:51.822Z,40.56
2019-06-01T03:40:24.000Z,40.57
2019-06-01T03:42:49.768Z,40.58
2019-06-01T03:45:17.899Z,40.60
2019-06-01T03:47:45.911Z,40.64
2019-06-01T03:50:14.199Z,40.61
2019-06-01T03:52:42.096Z,40.59
2019-06-01T03:55:10.177Z,40.51
2019-06-01T03:57:38.233Z,40.52
2019-06-01T04:00:25.237Z,40.44
2019-06-01T04:02:53.213Z,40.55
2019-06-01T04:05:21.529Z,40.49
2019-06-01T04:10:36.558Z,40.61
2019-06-01T04:13:05.627Z,40.53
2019-06-01T04:15:34.769Z,40.57
2019-06-01T04:18:03.901Z,40.52
2019-06-01T04:23:19.458Z,40.51
2019-06-01T04:25:47.840Z,40.54
2019-06-01T04:28:15.925Z,40.57
2019-06-01T04:30:44.724Z,40.57
2019-06-01T04:33:13.259Z,40.58
2019-06-01T04:35:45.227Z,40.62
2019-06-01T04:38:13.451Z,40.58
2019-06-01T04:40:43.088Z,40.59
2019-06-01T04:43:12.057Z,40.57
2019-06-01T04:45:41.091Z,40.54
2019-06-01T04:48:10.488Z,40.57
2019-06-01T04:50:39.444Z,40.58
2019-06-01T04:53:08.750Z,40.60
2019-06-01T04:55:38.348Z,40.58
2019-06-01T04:58:06.806Z,40.65
2019-06-01T05:00:36.389Z,40.52
2019-06-01T05:03:07.095Z,40.65
2019-06-01T05:05:34.469Z,40.57
2019-06-01T05:08:02.873Z,40.67
2019-06-01T05:10:30.985Z,40.52
2019-06-01T05:12:58.895Z,40.51
2019-06-01T05:15:26.987Z,40.48
2019-06-01T05:17:56.135Z,40.37
2019-06-01T05:20:24.850Z,40.47
2019-06-01T05:22:53.330Z,40.51
2019-06-01T05:25:21.906Z,40.47
2019-06-01T05:27:50.350Z,40.48
2019-06-01T05:30:18.870Z,40.45
2019-06-01T05:32:49.907Z,40.49
2019-06-01T05:35:18.075Z,40.49
2019-06-01T05:37:46.192Z,40.56
2019-06-01T05:40:14.773Z,40.50
2019-06-01T05:42:42.860Z,40.59
2019-06-01T05:45:11.319Z,40.50
2019-06-01T05:47:40.835Z,40.44
2019-06-01T05:50:10.458Z,40.37
2019-06-01T05:52:39.151Z,40.46
2019-06-01T05:55:07.378Z,40.41
2019-06-01T05:57:35.355Z,40.36
2019-06-01T06:00:03.404Z,40.57
2019-06-01T06:05:05.435Z,40.94
2019-06-01T06:07:33.465Z,40.69
2019-06-01T06:10:01.476Z,40.68
2019-06-01T06:15:03.176Z,40.53
2019-06-01T06:17:31.272Z,40.64
2019-06-01T06:19:59.646Z,40.83
2019-06-01T06:22:27.609Z,40.87
2019-06-01T06:24:55.696Z,40.98
2019-06-01T06:27:23.912Z,41.07
2019-06-01T06:29:51.921Z,40.30
2019-06-01T06:32:21.323Z,41.00
2019-06-01T06:37:23.940Z,40.72
2019-06-01T06:39:52.249Z,40.80
2019-06-01T06:42:20.425Z,41.08
2019-06-01T06:44:48.555Z,40.88
2019-06-01T06:47:16.706Z,41.48
2019-06-01T06:49:44.787Z,41.31
2019-06-01T06:52:12.882Z,41.77
2019-06-01T06:54:40.989Z,41.34
2019-06-01T06:57:09.050Z,40.97
2019-06-01T06:59:38.274Z,40.98
2019-06-01T07:02:06.633Z,40.65
2019-06-01T07:04:34.599Z,40.37
2019-06-01T07:07:02.667Z,40.54
2019-06-01T07:09:30.889Z,40.77
2019-06-01T07:11:58.758Z,40.68
2019-06-01T07:14:27.565Z,40.55
2019-06-01T07:16:56.468Z,40.53
2019-06-01T07:19:25.686Z,40.41
2019-06-01T07:21:53.926Z,40.35
2019-06-01T07:24:22.076Z,40.14
2019-06-01T07:26:50.037Z,40.11
2019-06-01T07:29:18.085Z,40.02
2019-06-01T07:31:46.078Z,40.47
2019-06-01T07:34:29.818Z,40.28
2019-06-01T07:36:43.964Z,39.90
2019-06-01T07:39:12.095Z,39.94
2019-06-01T07:44:27.344Z,39.94
2019-06-01T07:46:55.178Z,39.76
2019-06-01T07:49:42.272Z,40.04
2019-06-01T07:52:13.313Z,40.78
2019-06-01T07:54:40.018Z,40.10
2019-06-01T07:57:08.123Z,39.90
2019-06-01T07:59:36.138Z,39.98
2019-06-01T08:02:04.219Z,40.21
2019-06-01T08:04:50.651Z,39.96
2019-06-01T08:07:02.627Z,39.90
2019-06-01T08:09:31.625Z,39.91
2019-06-01T08:12:00.243Z,40.28
2019-06-01T08:14:28.616Z,40.65
2019-06-01T08:16:57.997Z,40.28
2019-06-01T08:19:26.036Z,40.56
2019-06-01T08:21:54.255Z,40.87
2019-06-01T08:24:22.326Z,41.62
2019-06-01T08:26:50.375Z,40.51
2019-06-01T08:29:18.490Z,40.73
2019-06-01T08:31:46.844Z,40.44
2019-06-01T08:34:13.846Z,41.52
2019-06-01T08:36:41.819Z,41.04
2019-06-01T08:39:10.127Z,40.32
2019-06-01T08:41:38.163Z,39.99
2019-06-01T08:44:06.492Z,39.53
2019-06-01T08:46:34.350Z,40.66
2019-06-01T08:49:02.379Z,40.77
2019-06-01T08:51:30.494Z,40.15
2019-06-01T08:53:59.004Z,40.19
2019-06-01T08:56:28.152Z,39.94
2019-06-01T08:58:56.321Z,40.87
2019-06-01T09:01:24.546Z,41.31
2019-06-01T09:03:52.728Z,40.34
2019-06-01T09:06:20.759Z,40.48
2019-06-01T09:08:48.679Z,40.04
2019-06-01T09:11:16.810Z,40.18
2019-06-01T09:13:45.286Z,40.88
2019-06-01T09:16:13.396Z,40.25
2019-06-01T09:18:41.484Z,39.61
2019-06-01T09:21:09.427Z,39.88
2019-06-01T09:23:37.848Z,39.68
2019-06-01T09:26:05.904Z,39.78
2019-06-01T09:28:34.044Z,38.97
2019-06-01T09:31:02.068Z,39.45
2019-06-01T09:33:30.187Z,39.07
2019-06-01T09:35:58.527Z,39.66
2019-06-01T09:38:27.668Z,38.97
2019-06-01T09:40:56.099Z,39.90
2019-06-01T09:43:24.330Z,38.72
2019-06-01T09:45:53.150Z,38.83
2019-06-01T09:48:21.636Z,38.66
2019-06-01T09:50:49.652Z,39.72
2019-06-01T09:53:17.600Z,38.37
2019-06-01T09:55:45.696Z,38.83
2019-06-01T09:58:13.744Z,38.39
2019-06-01T10:00:43.811Z,38.73
2019-06-01T10:03:11.313Z,38.81
2019-06-01T10:05:39.746Z,39.38
2019-06-01T10:08:07.628Z,39.35
2019-06-01T10:10:36.018Z,39.21
2019-06-01T10:13:07.555Z,38.40
2019-06-01T10:15:34.353Z,40.46
2019-06-01T10:18:02.385Z,39.49
2019-06-01T10:20:31.030Z,39.17
2019-06-01T10:22:58.966Z,39.54
2019-06-01T10:25:27.009Z,38.95
2019-06-01T10:27:54.998Z,38.84
2019-06-01T10:30:22.880Z,39.90
2019-06-01T10:32:50.863Z,39.86
2019-06-01T10:35:19.013Z,38.29
2019-06-01T10:37:47.427Z,38.91
2019-06-01T10:40:15.591Z,38.49
2019-06-01T10:42:43.735Z,39.31
2019-06-01T10:45:12.042Z,38.32
2019-06-01T10:47:40.158Z,38.56
2019-06-01T10:50:08.341Z,38.26
2019-06-01T10:52:36.510Z,38.77
2019-06-01T10:55:05.163Z,38.73
2019-06-01T10:57:34.452Z,39.41
2019-06-01T11:00:03.051Z,38.64
2019-06-01T11:02:32.533Z,38.50
2019-06-01T11:05:00.397Z,38.63
2019-06-01T11:07:28.561Z,38.97
2019-06-01T11:09:56.473Z,38.33
2019-06-01T11:12:24.633Z,38.83
2019-06-01T11:14:52.517Z,38.47
2019-06-01T11:17:20.725Z,38.50
2019-06-01T11:19:48.616Z,38.74
2019-06-01T11:22:16.438Z,38.64
2019-06-01T11:24:44.420Z,38.60
2019-06-01T11:27:12.252Z,39.61
2019-06-01T11:29:49.122Z,39.07
2019-06-01T11:32:10.054Z,38.28
2019-06-01T11:34:38.481Z,38.91
2019-06-01T11:37:07.076Z,39.80
2019-06-01T11:39:36.294Z,38.73
2019-06-01T11:42:04.490Z,38.54
2019-06-01T11:44:32.654Z,38.72
2019-06-01T11:47:00.432Z,38.71
2019-06-01T11:49:28.498Z,38.81
2019-06-01T11:51:56.366Z,39.02
2019-06-01T11:54:24.400Z,39.02
2019-06-01T11:56:52.286Z,38.87
2019-06-01T11:59:21.304Z,38.61
2019-06-01T12:01:49.463Z,38.47
2019-06-01T12:04:17.501Z,38.84
2019-06-01T12:06:46.315Z,38.83
2019-06-01T12:09:14.513Z,37.98
2019-06-01T12:11:42.392Z,38.31
2019-06-01T12:14:10.360Z,39.44
2019-06-01T12:16:38.638Z,39.80
2019-06-01T12:19:06.524Z,39.11
2019-06-01T12:21:34.704Z,38.77
2019-06-01T12:24:02.639Z,38.41
2019-06-01T12:26:30.702Z,38.26
2019-06-01T12:28:58.571Z,38.94
2019-06-01T12:31:26.398Z,39.82
2019-06-01T12:33:54.199Z,38.63
2019-06-01T12:36:21.986Z,38.49
2019-06-01T12:38:52.572Z,38.50
2019-06-01T12:41:20.696Z,38.33
2019-06-01T12:44:07.680Z,38.88
2019-06-01T12:46:35.905Z,39.02
2019-06-01T12:49:03.892Z,38.47
2019-06-01T12:51:32.016Z,38.02
2019-06-01T12:54:00.223Z,38.53
2019-06-01T12:56:28.591Z,38.14
2019-06-01T12:58:56.479Z,38.12
2019-06-01T13:01:24.677Z,38.19
2019-06-01T13:03:52.439Z,37.99
2019-06-01T13:06:20.752Z,39.22
2019-06-01T13:08:48.960Z,38.09
2019-06-01T13:11:16.897Z,38.02
2019-06-01T13:13:45.233Z,38.11
2019-06-01T13:16:13.114Z,38.96
2019-06-01T13:18:41.169Z,39.16
2019-06-01T13:21:09.227Z,39.78
2019-06-01T13:23:37.526Z,38.71
2019-06-01T13:26:05.384Z,38.17
2019-06-01T13:28:38.224Z,38.21
2019-06-01T13:31:03.142Z,38.71
2019-06-01T13:33:30.928Z,38.28
2019-06-01T13:35:58.790Z,38.56
2019-06-01T13:38:26.675Z,38.81
2019-06-01T13:40:54.462Z,38.18
2019-06-01T13:43:22.498Z,38.39
2019-06-01T13:45:52.160Z,37.97
2019-06-01T13:48:20.128Z,37.95
2019-06-01T13:50:48.124Z,38.70
2019-06-01T13:53:16.038Z,38.68
2019-06-01T13:55:44.132Z,39.05
2019-06-01T13:58:11.988Z,38.61
2019-06-01T14:00:40.002Z,38.33
2019-06-01T14:03:07.958Z,38.45
2019-06-01T14:05:35.915Z,38.88
2019-06-01T14:08:03.930Z,38.77
2019-06-01T14:10:31.792Z,38.33
2019-06-01T14:12:59.851Z,38.45
2019-06-01T14:15:27.834Z,38.22
2019-06-01T14:17:56.477Z,38.57
2019-06-01T14:20:24.779Z,38.20
2019-06-01T14:22:54.027Z,38.77
2019-06-01T14:25:22.157Z,38.96
2019-06-01T14:27:50.256Z,39.12
2019-06-01T14:30:18.250Z,38.53
2019-06-01T14:32:46.256Z,38.40
2019-06-01T14:35:14.363Z,38.61
2019-06-01T14:37:42.230Z,38.52
2019-06-01T14:40:11.106Z,39.10
2019-06-01T14:42:39.168Z,38.58
2019-06-01T14:45:07.223Z,38.50
2019-06-01T14:47:35.317Z,38.38
2019-06-01T14:50:03.302Z,38.40
2019-06-01T14:52:34.567Z,38.83
2019-06-01T14:55:00.933Z,38.79
2019-06-01T14:57:28.861Z,37.96
2019-06-01T14:59:58.150Z,38.59
2019-06-01T15:02:26.212Z,38.21
2019-06-01T15:04:54.422Z,37.97
2019-06-01T15:07:22.421Z,38.32
2019-06-01T15:09:50.238Z,38.27
2019-06-01T15:12:18.631Z,37.70
2019-06-01T15:14:46.988Z,38.23
2019-06-01T15:17:15.307Z,37.81
2019-06-01T15:19:43.284Z,38.20
2019-06-01T15:22:11.325Z,38.04
2019-06-01T15:24:39.240Z,38.16
2019-06-01T15:27:07.581Z,38.09
2019-06-01T15:29:35.594Z,38.15
2019-06-01T15:32:03.546Z,37.96
2019-06-01T15:34:31.624Z,37.90
2019-06-01T15:36:59.710Z,37.72
2019-06-01T15:39:27.698Z,37.98
2019-06-01T15:41:55.602Z,37.68
2019-06-01T15:44:23.928Z,37.87
2019-06-01T15:49:38.810Z,38.13
2019-06-01T15:52:06.727Z,37.88
2019-06-01T15:54:34.602Z,38.35
2019-06-01T15:57:02.767Z,38.39
2019-06-01T15:59:32.073Z,38.07
2019-06-01T16:02:01.203Z,37.73
2019-06-01T16:04:29.711Z,37.95
2019-06-01T16:06:57.511Z,38.00
2019-06-01T16:09:41.707Z,38.40
2019-06-01T16:11:55.493Z,38.34
2019-06-01T16:14:24.634Z,38.24
2019-06-01T16:16:53.802Z,38.14
2019-06-01T16:19:22.963Z,38.09
2019-06-01T16:21:50.870Z,38.02
2019-06-01T16:24:18.840Z,38.14
2019-06-01T16:26:46.830Z,38.19
2019-06-01T16:29:14.826Z,38.11
2019-06-01T16:32:02.996Z,38.35
2019-06-01T16:34:31.550Z,38.24
2019-06-01T16:36:59.444Z,38.15
2019-06-01T16:39:27.335Z,38.07
2019-06-01T16:41:55.587Z,38.11
2019-06-01T16:46:59.654Z,38.33
2019-06-01T16:49:47.556Z,38.13
2019-06-01T16:52:15.440Z,38.15
2019-06-01T16:59:50.925Z,38.24
2019-06-01T17:02:18.813Z,38.41
2019-06-01T17:04:46.690Z,38.28
2019-06-01T17:07:14.492Z,38.29
2019-06-01T17:09:42.400Z,38.44
2019-06-01T17:12:10.287Z,38.57
2019-06-01T17:14:38.140Z,38.45
2019-06-01T17:17:07.355Z,38.40
2019-06-01T17:19:35.646Z,38.48
2019-06-01T17:22:03.594Z,38.47
2019-06-01T17:24:31.469Z,38.75
2019-06-01T17:26:59.768Z,38.68
2019-06-01T17:29:29.031Z,38.47
2019-06-01T17:32:14.327Z,38.30
2019-06-01T17:34:26.628Z,38.59
2019-06-01T17:37:13.662Z,38.50
2019-06-01T17:39:41.687Z,38.71
2019-06-01T17:42:09.584Z,38.73
2019-06-01T17:44:37.348Z,38.66
2019-06-01T17:47:06.190Z,38.65
2019-06-01T17:49:34.934Z,38.46
2019-06-01T17:52:03.681Z,38.60
2019-06-01T17:54:32.620Z,38.64
2019-06-01T17:57:01.056Z,38.65
2019-06-01T17:59:29.042Z,38.34
2019-06-01T18:01:57.043Z,38.59
2019-06-01T18:04:24.801Z,38.70
2019-06-01T18:06:53.118Z,38.65
2019-06-01T18:09:21.027Z,38.55
2019-06-01T18:11:48.909Z,38.69
2019-06-01T18:14:16.924Z,38.60
2019-06-01T18:16:45.132Z,38.51
2019-06-01T18:19:13.331Z,38.71
2019-06-01T18:21:41.103Z,38.65
2019-06-01T18:24:09.950Z,38.70
2019-06-01T18:26:38.730Z,38.76
2019-06-01T18:29:25.814Z,38.76
2019-06-01T18:31:53.793Z,38.79
2019-06-01T18:34:21.799Z,38.79
2019-06-01T18:39:23.131Z,38.69
2019-06-01T18:41:51.100Z,38.69
2019-06-01T18:44:19.089Z,38.97
2019-06-01T18:46:46.998Z,38.83
2019-06-01T18:49:18.073Z,38.88
2019-06-01T18:51:44.702Z,38.95
2019-06-01T18:54:13.020Z,38.86
2019-06-01T18:56:42.108Z,38.94
2019-06-01T18:59:10.267Z,38.89
2019-06-01T19:04:13.904Z,39.13
2019-06-01T19:06:42.123Z,39.14
2019-06-01T19:09:11.317Z,39.04
2019-06-01T19:11:39.751Z,39.03
2019-06-01T19:14:07.903Z,39.04
2019-06-01T19:16:35.877Z,39.17
2019-06-01T19:19:03.665Z,39.24
2019-06-01T19:21:31.640Z,39.24
2019-06-01T19:23:59.481Z,39.24
2019-06-01T19:26:46.983Z,39.41
2019-06-01T19:29:34.144Z,39.24
2019-06-01T19:32:02.223Z,39.33
2019-06-01T19:34:30.406Z,39.33
2019-06-01T19:36:58.425Z,39.28
2019-06-01T19:39:26.437Z,39.26
2019-06-01T19:41:54.688Z,39.27
2019-06-01T19:44:41.903Z,39.32
2019-06-01T19:47:10.234Z,39.38
2019-06-01T19:49:38.266Z,39.29
2019-06-01T19:52:06.272Z,39.32
2019-06-01T19:57:09.709Z,39.40
2019-06-01T19:59:38.168Z,39.42
2019-06-01T20:04:53.306Z,39.43
2019-06-01T20:07:21.538Z,39.45
2019-06-01T20:09:49.983Z,39.51
2019-06-01T20:12:20.169Z,39.55
2019-06-01T20:14:48.010Z,39.39
2019-06-01T20:17:23.086Z,39.47
2019-06-01T20:19:49.046Z,39.51
2019-06-01T20:22:17.124Z,39.54
2019-06-01T20:24:45.215Z,39.56
2019-06-01T20:27:13.455Z,39.47
2019-06-01T20:29:41.488Z,39.61
2019-06-01T20:32:09.815Z,39.70
2019-06-01T20:34:37.771Z,39.66
2019-06-01T20:37:24.731Z,39.73
2019-06-01T20:40:12.187Z,39.66
2019-06-01T20:42:40.247Z,39.75
2019-06-01T20:45:08.570Z,39.80
2019-06-01T20:47:36.603Z,39.86
2019-06-01T20:50:05.948Z,39.87
2019-06-01T20:52:34.096Z,39.87
2019-06-01T20:55:02.178Z,39.92
2019-06-01T20:57:30.153Z,39.95
2019-06-01T20:59:58.262Z,39.86
2019-06-01T21:02:26.159Z,39.86
2019-06-01T21:05:13.810Z,39.90
2019-06-01T21:07:43.558Z,39.88
2019-06-01T21:10:11.643Z,39.93
2019-06-01T21:12:45.675Z,39.94
2019-06-01T21:15:09.721Z,39.95
2019-06-01T21:17:37.771Z,39.89
2019-06-01T21:20:05.888Z,39.92
2019-06-01T21:22:33.927Z,39.90
2019-06-01T21:25:02.039Z,39.94
2019-06-01T21:27:30.136Z,39.98
2019-06-01T21:29:58.184Z,39.98
2019-06-01T21:32:26.257Z,40.05
2019-06-01T21:37:41.777Z,40.15
2019-06-01T21:40:09.995Z,40.06
2019-06-01T21:42:38.759Z,40.03
2019-06-01T21:45:07.735Z,40.07
2019-06-01T21:47:35.646Z,40.06
2019-06-01T21:50:03.698Z,40.10
2019-06-01T21:52:31.639Z,40.07
2019-06-01T21:54:59.546Z,40.12
2019-06-01T21:57:27.571Z,40.03
2019-06-01T21:59:55.365Z,40.08
2019-06-01T22:02:23.455Z,40.05
2019-06-01T22:04:51.521Z,40.13
2019-06-01T22:07:19.585Z,40.21
2019-06-01T22:09:47.574Z,40.20
2019-06-01T22:12:15.683Z,40.46
2019-06-01T22:14:43.693Z,40.38
2019-06-01T22:17:12.480Z,40.35
2019-06-01T22:19:40.537Z,40.30
2019-06-01T22:22:08.547Z,40.26
2019-06-01T22:24:36.901Z,40.19
2019-06-01T22:27:04.914Z,40.22
2019-06-01T22:29:32.781Z,40.22
2019-06-01T22:32:00.561Z,40.27
2019-06-01T22:34:29.316Z,40.27
2019-06-01T22:36:57.741Z,40.27
2019-06-01T22:39:26.954Z,40.25
2019-06-01T22:41:54.943Z,40.34
2019-06-01T22:44:24.061Z,40.38
2019-06-01T22:46:52.153Z,40.28
2019-06-01T22:49:20.658Z,40.34
2019-06-01T22:51:48.993Z,40.33
2019-06-01T22:54:16.907Z,40.38
2019-06-01T22:56:44.912Z,40.40
2019-06-01T22:59:12.846Z,40.41
2019-06-01T23:01:41.172Z,40.48
2019-06-01T23:04:09.159Z,40.53
2019-06-01T23:06:37.123Z,40.39
2019-06-01T23:09:06.833Z,40.44
2019-06-01T23:11:36.836Z,40.39
2019-06-01T23:14:04.823Z,40.53
2019-06-01T23:16:32.858Z,40.42
2019-06-01T23:19:01.049Z,40.45
2019-06-01T23:21:29.977Z,40.49
2019-06-01T23:23:58.106Z,40.50
2019-06-01T23:26:26.223Z,40.48
2019-06-01T23:28:54.248Z,40.54
2019-06-01T23:31:22.281Z,40.50
2019-06-01T23:33:50.360Z,40.50
2019-06-01T23:36:18.334Z,40.47
2019-06-01T23:38:46.232Z,40.55
2019-06-01T23:41:14.539Z,40.60
2019-06-01T23:43:42.667Z,40.53
2019-06-01T23:46:10.883Z,40.61
2019-06-01T23:48:38.957Z,40.61
2019-06-01T23:51:06.996Z,40.60
2019-06-01T23:53:34.831Z,40.63
2019-06-01T23:56:02.876Z,40.54
2019-06-01T23:58:30.947Z,40.62
